Time;durP1;ratioP1;P1;durP2;ratioP2;P2;SDS_P1;SDS_P2;PMS_P1;PMS_P2;Temp;Humidity;BMP_temperature;BMP_pressure;BME280_temperature;BME280_humidity;BME280_pressure;Samples;Min_cycle;Max_cycle;Signal;HPM_P1;HPM_P2
2023/06/24 00:01:28;;;;;;;8.10;3.10;;;19.40;99.90;;;;;;5051306;28;20025;-72
2023/06/24 00:03:54;;;;;;;5.18;2.70;;;19.40;99.90;;;;;;5049880;28;20025;-72
2023/06/24 00:06:22;;;;;;;7.00;3.50;;;19.40;99.90;;;;;;5050771;28;20532;-73
2023/06/24 00:08:49;;;;;;;5.68;2.88;;;19.40;99.90;;;;;;5051155;28;20029;-72
2023/06/24 00:11:15;;;;;;;7.38;3.38;;;19.40;99.90;;;;;;5050944;28;20020;-72
2023/06/24 00:13:42;;;;;;;8.32;2.85;;;19.40;99.90;;;;;;5050846;28;20466;-73
2023/06/24 00:16:08;;;;;;;7.18;3.35;;;19.40;99.90;;;;;;5050731;28;20155;-73
2023/06/24 00:18:35;;;;;;;7.15;2.85;;;19.30;99.90;;;;;;5051009;28;20476;-72
2023/06/24 00:21:01;;;;;;;5.38;2.78;;;19.30;99.90;;;;;;5050903;28;20098;-73
2023/06/24 00:23:28;;;;;;;9.88;3.20;;;19.30;99.90;;;;;;5050645;28;20025;-72
2023/06/24 00:25:55;;;;;;;7.55;3.10;;;19.30;99.90;;;;;;5050849;28;20056;-73
2023/06/24 00:28:21;;;;;;;7.70;3.22;;;19.30;99.90;;;;;;5050238;28;20136;-72
2023/06/24 00:30:47;;;;;;;9.70;3.50;;;19.30;99.90;;;;;;5051009;28;20029;-72
2023/06/24 00:33:14;;;;;;;4.82;2.70;;;19.20;99.90;;;;;;5050472;28;20144;-73
2023/06/24 00:35:40;;;;;;;10.80;3.00;;;19.30;99.90;;;;;;5050725;28;20025;-73
2023/06/24 00:38:06;;;;;;;9.18;3.08;;;19.20;99.90;;;;;;5048939;28;20025;-73
2023/06/24 00:40:32;;;;;;;5.40;3.13;;;19.20;99.90;;;;;;5050511;28;20103;-72
2023/06/24 00:42:58;;;;;;;7.97;3.03;;;19.20;99.90;;;;;;5051237;28;20025;-72
2023/06/24 00:45:24;;;;;;;6.95;3.30;;;19.20;99.90;;;;;;5050691;28;20222;-73
2023/06/24 00:47:56;;;;;;;9.77;3.47;;;19.20;99.90;;;;;;5050653;28;20079;-72
2023/06/24 00:50:22;;;;;;;5.82;2.67;;;19.20;99.90;;;;;;5050478;28;20037;-72
2023/06/24 00:52:49;;;;;;;9.35;3.42;;;19.20;99.90;;;;;;5050919;28;20128;-73
2023/06/24 00:55:15;;;;;;;6.57;3.40;;;19.20;99.90;;;;;;5050261;28;20033;-73
2023/06/24 00:57:45;;;;;;;7.53;3.47;;;19.10;99.90;;;;;;5050721;28;20029;-73
2023/06/24 01:00:17;;;;;;;6.65;2.83;;;19.20;99.90;;;;;;5050699;28;20344;-73
2023/06/24 01:02:43;;;;;;;8.40;3.58;;;19.20;99.90;;;;;;5050792;28;20025;-72
2023/06/24 01:05:12;;;;;;;9.63;3.72;;;19.10;99.90;;;;;;5049897;28;20486;-73
2023/06/24 01:07:38;;;;;;;9.63;3.90;;;19.10;99.90;;;;;;5050599;28;20512;-73
2023/06/24 01:10:06;;;;;;;11.70;4.00;;;19.10;99.90;;;;;;5050766;28;20021;-72
2023/06/24 01:12:34;;;;;;;11.82;4.30;;;19.10;99.90;;;;;;5050562;28;20025;-73
2023/06/24 01:15:02;;;;;;;11.55;4.00;;;19.10;99.90;;;;;;5050686;28;20178;-73
2023/06/24 01:17:36;;;;;;;12.43;3.97;;;19.10;99.90;;;;;;5049989;28;20443;-73
2023/06/24 01:20:04;;;;;;;8.82;3.85;;;19.10;99.90;;;;;;5050587;28;20075;-73
2023/06/24 01:22:53;;;;;;;5.63;3.70;;;19.10;99.90;;;;;;5049893;28;20083;-72
2023/06/24 01:25:40;;;;;;;8.07;3.63;;;19.10;99.90;;;;;;5049282;28;20029;-73
2023/06/24 01:28:24;;;;;;;9.48;4.47;;;19.10;99.90;;;;;;5050289;28;20053;-72
2023/06/24 01:31:08;;;;;;;8.20;3.25;;;19.10;99.90;;;;;;5050216;28;20490;-72
2023/06/24 01:33:50;;;;;;;9.60;3.90;;;19.10;99.90;;;;;;5050101;28;20419;-73
2023/06/24 01:36:19;;;;;;;7.70;3.50;;;19.10;99.90;;;;;;5049847;28;20032;-72
2023/06/24 01:38:52;;;;;;;8.80;3.85;;;19.10;99.90;;;;;;5050399;28;20413;-72
2023/06/24 01:41:20;;;;;;;;;;;19.10;99.90;;;;;;5050403;28;20025;-73
2023/06/24 01:43:47;;;;;;;7.63;3.63;;;19.10;99.90;;;;;;5050282;28;19905;-72
2023/06/24 01:46:16;;;;;;;10.23;3.90;;;19.00;99.90;;;;;;5049772;28;20356;-73
2023/06/24 01:48:45;;;;;;;7.90;3.75;;;19.00;99.90;;;;;;5050133;28;20036;-72
2023/06/24 01:51:13;;;;;;;7.88;3.83;;;19.00;99.90;;;;;;5051716;28;20439;-73
2023/06/24 01:53:42;;;;;;;8.30;3.72;;;19.10;99.90;;;;;;5053876;28;20029;-73
2023/06/24 01:56:12;;;;;;;7.78;3.97;;;19.10;99.90;;;;;;5053943;28;20062;-72
2023/06/24 01:58:40;;;;;;;6.38;3.72;;;19.10;99.90;;;;;;5054239;28;20029;-73
2023/06/24 02:01:07;;;;;;;7.90;4.00;;;19.10;99.90;;;;;;5054084;28;20116;-72
2023/06/24 02:03:34;;;;;;;7.90;3.33;;;19.10;99.90;;;;;;5053303;28;20032;-72
2023/06/24 02:06:02;;;;;;;8.00;3.53;;;19.10;99.90;;;;;;5053580;28;20116;-74
2023/06/24 02:08:36;;;;;;;7.35;4.10;;;19.10;99.90;;;;;;5053129;28;20031;-72
2023/06/24 02:11:03;;;;;;;8.63;4.20;;;19.10;99.90;;;;;;5053548;28;20047;-73
2023/06/24 02:13:32;;;;;;;5.43;3.53;;;19.00;99.90;;;;;;5052412;28;20031;-73
2023/06/24 02:16:00;;;;;;;6.13;3.40;;;19.00;99.90;;;;;;5053056;28;20029;-72
2023/06/24 02:18:27;;;;;;;6.38;3.70;;;19.00;99.90;;;;;;5051250;28;20029;-73
2023/06/24 02:20:55;;;;;;;11.48;4.03;;;18.90;99.90;;;;;;5053000;28;20082;-72
2023/06/24 02:23:22;;;;;;;7.63;3.50;;;18.90;99.90;;;;;;5052372;28;20409;-73
2023/06/24 02:25:49;;;;;;;7.25;3.80;;;18.90;99.90;;;;;;5053110;28;20029;-73
2023/06/24 02:28:15;;;;;;;8.45;3.70;;;18.90;99.90;;;;;;5052396;28;20105;-73
2023/06/24 02:30:43;;;;;;;9.35;4.00;;;18.90;99.90;;;;;;5053164;28;20025;-72
2023/06/24 02:33:11;;;;;;;6.95;3.67;;;18.90;99.90;;;;;;5052756;28;20052;-72
2023/06/24 02:35:38;;;;;;;5.90;3.63;;;18.90;99.90;;;;;;5052998;28;20029;-73
2023/06/24 02:38:04;;;;;;;7.15;3.85;;;18.90;99.90;;;;;;5052638;28;20432;-70
2023/06/24 02:40:30;;;;;;;5.63;3.42;;;18.90;99.90;;;;;;5052802;28;20032;-73
2023/06/24 02:42:57;;;;;;;7.63;3.95;;;18.90;99.90;;;;;;5052980;28;20082;-73
2023/06/24 02:45:23;;;;;;;7.82;4.50;;;19.00;99.90;;;;;;5052590;28;20037;-73
2023/06/24 02:47:49;;;;;;;8.48;3.60;;;19.00;99.90;;;;;;5053002;28;20043;-72
2023/06/24 02:50:16;;;;;;;6.80;3.72;;;19.10;99.90;;;;;;5052436;28;20020;-73
2023/06/24 02:52:42;;;;;;;5.88;3.60;;;19.10;99.90;;;;;;5053063;28;20025;-73
2023/06/24 02:55:09;;;;;;;4.97;3.38;;;19.20;99.90;;;;;;5052799;28;20033;-72
2023/06/24 02:57:36;;;;;;;6.00;3.83;;;19.20;99.90;;;;;;5052449;28;20086;-73
2023/06/24 03:00:05;;;;;;;8.05;3.97;;;19.20;99.90;;;;;;5052859;28;20033;-73
2023/06/24 03:02:32;;;;;;;5.93;3.92;;;19.30;99.90;;;;;;5051131;28;20025;-72
2023/06/24 03:05:02;;;;;;;8.65;3.70;;;19.30;99.90;;;;;;5052567;28;20028;-73
2023/06/24 03:07:28;;;;;;;5.53;3.72;;;19.30;99.90;;;;;;5051878;28;20089;-73
2023/06/24 03:09:54;;;;;;;5.18;3.00;;;19.30;99.90;;;;;;5052352;28;20032;-73
2023/06/24 03:12:19;;;;;;;6.72;3.47;;;19.30;99.90;;;;;;5051899;28;20025;-73
2023/06/24 03:14:45;;;;;;;6.63;3.50;;;19.30;99.90;;;;;;5051945;28;20037;-73
2023/06/24 03:17:11;;;;;;;7.47;3.30;;;19.40;99.90;;;;;;5052632;28;20458;-73
2023/06/24 03:19:37;;;;;;;8.50;3.67;;;19.40;99.90;;;;;;5051580;28;20033;-73
2023/06/24 03:22:03;;;;;;;8.32;3.42;;;19.40;99.90;;;;;;5052256;28;20029;-72
2023/06/24 03:24:29;;;;;;;7.18;3.47;;;19.40;99.90;;;;;;5051348;28;20355;-72
2023/06/24 03:26:56;;;;;;;6.53;3.05;;;19.40;99.90;;;;;;5052110;28;20029;-72
2023/06/24 03:29:23;;;;;;;7.00;3.33;;;19.50;99.90;;;;;;5051239;28;20063;-73
2023/06/24 03:31:50;;;;;;;6.93;3.13;;;19.50;99.90;;;;;;5052048;28;20025;-73
2023/06/24 03:34:16;;;;;;;9.85;3.55;;;19.50;99.90;;;;;;5051683;28;20071;-73
2023/06/24 03:36:42;;;;;;;5.00;3.08;;;19.50;99.90;;;;;;5050343;28;20057;-73
2023/06/24 03:39:08;;;;;;;13.05;3.47;;;19.50;99.90;;;;;;5052174;28;20029;-72
2023/06/24 03:41:34;;;;;;;5.32;2.70;;;19.50;99.90;;;;;;5050215;28;20055;-73
2023/06/24 03:44:01;;;;;;;4.32;2.75;;;19.50;99.90;;;;;;5051523;28;20029;-72
2023/06/24 03:46:28;;;;;;;7.93;3.10;;;19.50;99.90;;;;;;5051072;28;20029;-72
2023/06/24 03:48:54;;;;;;;6.57;3.65;;;19.50;99.90;;;;;;5051496;28;20021;-72
2023/06/24 03:51:20;;;;;;;4.32;2.58;;;19.50;99.90;;;;;;5050958;28;20485;-73
2023/06/24 03:53:45;;;;;;;8.25;3.10;;;19.40;99.90;;;;;;5051109;28;20552;-73
2023/06/24 03:56:11;;;;;;;6.70;3.15;;;19.50;99.90;;;;;;5051306;28;20117;-72
2023/06/24 03:58:36;;;;;;;4.45;2.83;;;19.50;99.90;;;;;;5050843;28;20112;-72
2023/06/24 04:01:03;;;;;;;5.53;2.88;;;19.50;99.90;;;;;;5051478;28;20465;-71
2023/06/24 04:03:29;;;;;;;8.55;3.28;;;19.50;99.90;;;;;;5050737;28;20457;-72
2023/06/24 04:05:55;;;;;;;6.70;3.17;;;19.50;99.90;;;;;;5050854;28;20029;-72
2023/06/24 04:08:22;;;;;;;4.50;3.05;;;19.50;99.90;;;;;;5050604;28;20119;-73
2023/06/24 04:10:48;;;;;;;6.47;3.20;;;19.40;99.90;;;;;;5051064;28;20031;-72
2023/06/24 04:13:13;;;;;;;4.38;3.00;;;19.50;99.90;;;;;;5051034;28;20025;-72
2023/06/24 04:15:39;;;;;;;4.63;3.15;;;19.50;99.90;;;;;;5050784;28;20120;-72
2023/06/24 04:18:05;;;;;;;4.38;2.58;;;19.50;99.90;;;;;;5051037;28;20067;-72
2023/06/24 04:20:30;;;;;;;6.90;3.33;;;19.50;99.90;;;;;;5050729;28;20076;-73
2023/06/24 04:22:58;;;;;;;5.82;2.90;;;19.50;99.90;;;;;;5050829;28;20040;-72
2023/06/24 04:25:24;;;;;;;4.03;2.80;;;19.60;99.90;;;;;;5050523;28;20033;-73
2023/06/24 04:27:50;;;;;;;5.85;2.90;;;19.60;99.90;;;;;;5050849;28;20041;-73
2023/06/24 04:30:15;;;;;;;5.30;3.28;;;19.70;99.90;;;;;;5050469;28;20033;-72
2023/06/24 04:32:41;;;;;;;5.82;2.97;;;19.70;99.90;;;;;;5050480;28;20056;-73
2023/06/24 04:35:07;;;;;;;7.40;3.40;;;19.60;99.90;;;;;;5050740;28;20187;-72
2023/06/24 04:37:33;;;;;;;4.85;3.13;;;19.70;99.90;;;;;;5050283;28;20024;-73
2023/06/24 04:39:59;;;;;;;6.25;3.22;;;19.70;99.90;;;;;;5051220;28;20487;-73
2023/06/24 04:42:24;;;;;;;6.35;3.10;;;19.70;99.90;;;;;;5048836;28;20160;-72
2023/06/24 04:44:53;;;;;;;6.97;3.55;;;19.70;99.90;;;;;;5050900;28;20028;-72
2023/06/24 04:47:19;;;;;;;4.85;2.90;;;19.70;99.90;;;;;;5050627;28;20029;-72
2023/06/24 04:49:45;;;;;;;5.88;3.17;;;19.70;99.90;;;;;;5050671;28;20359;-73
2023/06/24 04:52:12;;;;;;;5.53;2.72;;;19.70;99.90;;;;;;5050847;28;20029;-72
2023/06/24 04:54:37;;;;;;;7.82;3.40;;;19.70;99.90;;;;;;5050287;28;20063;-72
2023/06/24 04:57:08;;;;;;;5.22;2.75;;;19.70;99.90;;;;;;5050646;28;20064;-73
2023/06/24 04:59:34;;;;;;;6.80;3.60;;;19.80;99.90;;;;;;5050202;28;20024;-72
2023/06/24 05:01:59;;;;;;;5.25;3.05;;;19.80;99.90;;;;;;5050396;28;20457;-72
2023/06/24 05:04:25;;;;;;;4.63;2.90;;;19.80;99.90;;;;;;5050354;28;20037;-73
2023/06/24 05:06:51;;;;;;;7.70;2.97;;;19.80;99.90;;;;;;5050508;28;20124;-72
2023/06/24 05:09:17;;;;;;;5.82;2.72;;;19.80;99.90;;;;;;5050615;28;20378;-72
2023/06/24 05:11:43;;;;;;;5.10;2.65;;;19.90;99.90;;;;;;5049752;28;20111;-72
2023/06/24 05:14:09;;;;;;;3.92;2.47;;;19.90;99.90;;;;;;5050801;28;20171;-73
2023/06/24 05:16:35;;;;;;;4.70;2.60;;;19.90;99.90;;;;;;5050307;28;20040;-73
2023/06/24 05:19:00;;;;;;;3.65;2.65;;;19.80;99.90;;;;;;5051230;28;20025;-73
2023/06/24 05:21:26;;;;;;;4.47;2.70;;;19.80;99.90;;;;;;5050067;28;20382;-74
2023/06/24 05:23:52;;;;;;;6.30;2.83;;;19.80;99.90;;;;;;5050664;28;20025;-73
2023/06/24 05:26:17;;;;;;;7.93;3.15;;;19.70;99.90;;;;;;5052884;28;20351;-72
2023/06/24 05:28:43;;;;;;;3.78;2.38;;;19.80;99.90;;;;;;5054148;28;20052;-72
2023/06/24 05:31:09;;;;;;;7.65;3.30;;;19.80;99.90;;;;;;5054373;28;20474;-72
2023/06/24 05:33:34;;;;;;;4.68;2.63;;;19.80;99.90;;;;;;5054128;28;20029;-72
2023/06/24 05:36:00;;;;;;;5.63;3.00;;;19.90;99.90;;;;;;5054231;28;20024;-72
2023/06/24 05:38:26;;;;;;;6.18;3.00;;;19.80;99.90;;;;;;5053852;28;20040;-72
2023/06/24 05:40:52;;;;;;;6.40;2.92;;;19.90;99.90;;;;;;5054322;28;20029;-72
2023/06/24 05:43:17;;;;;;;5.03;3.25;;;19.90;99.90;;;;;;5054089;28;20083;-72
2023/06/24 05:45:43;;;;;;;4.15;2.83;;;19.90;99.90;;;;;;5053487;28;20489;-72
2023/06/24 05:48:10;;;;;;;5.70;3.13;;;19.90;99.90;;;;;;5053831;28;20032;-72
2023/06/24 05:50:35;;;;;;;4.90;3.25;;;20.00;99.90;;;;;;5053578;28;20024;-72
2023/06/24 05:53:01;;;;;;;6.47;2.97;;;20.10;99.90;;;;;;5053719;28;20339;-72
2023/06/24 05:55:27;;;;;;;7.60;3.25;;;20.20;99.90;;;;;;5053141;28;20060;-72
2023/06/24 05:57:52;;;;;;;5.15;2.85;;;20.20;99.90;;;;;;5052280;28;20445;-72
2023/06/24 06:00:18;;;;;;;5.25;2.80;;;20.30;99.90;;;;;;5053744;28;20032;-72
2023/06/24 06:02:44;;;;;;;5.97;2.95;;;20.30;99.90;;;;;;5053349;28;20037;-72
2023/06/24 06:05:10;;;;;;;4.80;3.13;;;20.30;99.90;;;;;;5053493;28;20040;-72
2023/06/24 06:07:38;;;;;;;6.22;3.10;;;20.40;99.90;;;;;;5053225;28;20059;-73
2023/06/24 06:10:06;;;;;;;6.35;2.88;;;20.50;99.90;;;;;;5053780;28;20063;-72
2023/06/24 06:12:32;;;;;;;7.25;3.22;;;20.60;99.90;;;;;;5052782;28;20044;-72
2023/06/24 06:14:57;;;;;;;4.35;3.03;;;20.60;99.90;;;;;;5053650;28;20108;-72
2023/06/24 06:17:23;;;;;;;9.02;3.25;;;20.70;99.90;;;;;;5051491;28;20033;-72
2023/06/24 06:19:49;;;;;;;6.65;3.00;;;20.80;99.90;;;;;;5052777;28;20438;-72
2023/06/24 06:22:15;;;;;;;7.93;2.97;;;20.90;99.90;;;;;;5053493;28;20029;-72
2023/06/24 06:24:41;;;;;;;4.90;3.00;;;21.10;99.90;;;;;;5052869;28;20052;-72
2023/06/24 06:27:11;;;;;;;5.88;2.92;;;21.20;99.90;;;;;;5052092;28;20063;-72
2023/06/24 06:29:37;;;;;;;6.40;2.85;;;21.30;99.90;;;;;;5052712;28;20045;-73
2023/06/24 06:32:03;;;;;;;8.93;2.85;;;21.30;99.90;;;;;;5051727;28;20059;-72
2023/06/24 06:34:28;;;;;;;8.52;3.08;;;21.30;99.90;;;;;;5051033;28;20501;-73
2023/06/24 06:36:54;;;;;;;10.50;2.80;;;21.30;99.90;;;;;;5051544;28;20101;-72
2023/06/24 06:39:20;;;;;;;5.93;2.90;;;21.30;94.00;;;;;;5052992;28;20029;-72
2023/06/24 06:41:45;;;;;;;8.35;3.28;;;21.20;88.70;;;;;;5052688;28;20025;-72
2023/06/24 06:44:11;;;;;;;9.15;3.25;;;21.20;90.90;;;;;;5052515;28;20021;-72
2023/06/24 06:46:37;;;;;;;7.18;2.90;;;21.30;94.10;;;;;;5052560;28;20113;-72
2023/06/24 06:49:02;;;;;;;9.68;3.50;;;21.40;90.80;;;;;;5053070;28;20029;-72
2023/06/24 06:51:28;;;;;;;6.85;2.97;;;21.50;98.00;;;;;;5052446;28;20068;-73
2023/06/24 06:53:54;;;;;;;6.65;3.17;;;21.60;78.90;;;;;;5053292;28;20455;-72
2023/06/24 06:56:24;;;;;;;6.95;3.40;;;21.80;94.40;;;;;;5052671;28;20025;-72
2023/06/24 06:58:50;;;;;;;8.65;2.72;;;21.80;67.10;;;;;;5052088;28;20033;-72
2023/06/24 07:01:17;;;;;;;6.47;2.95;;;21.90;70.00;;;;;;5052401;28;20458;-72
2023/06/24 07:03:42;;;;;;;10.30;3.25;;;22.00;61.00;;;;;;5051815;28;20085;-73
2023/06/24 07:06:08;;;;;;;7.03;2.70;;;22.10;68.90;;;;;;5051972;28;20033;-73
2023/06/24 07:08:35;;;;;;;5.63;3.15;;;22.10;55.60;;;;;;5051803;28;20017;-73
2023/06/24 07:11:01;;;;;;;7.07;2.70;;;22.10;28.30;;;;;;5052234;28;20055;-73
2023/06/24 07:13:27;;;;;;;8.70;3.05;;;22.10;37.20;;;;;;5052186;28;20049;-73
2023/06/24 07:15:53;;;;;;;5.90;2.58;;;22.30;50.90;;;;;;5051732;28;20117;-73
2023/06/24 07:18:18;;;;;;;5.72;3.03;;;22.50;38.20;;;;;;5051990;28;20051;-72
2023/06/24 07:20:44;;;;;;;6.55;2.95;;;22.50;30.00;;;;;;5051556;28;20102;-73
2023/06/24 07:23:10;;;;;;;9.13;3.47;;;22.50;24.50;;;;;;5052138;28;20072;-73
2023/06/24 07:25:36;;;;;;;5.22;2.65;;;22.60;19.10;;;;;;5051552;28;20029;-73
2023/06/24 07:28:02;;;;;;;4.38;2.45;;;22.60;16.10;;;;;;5051545;28;20049;-73
2023/06/24 07:30:27;;;;;;;3.92;2.28;;;22.70;1.00;;;;;;5051622;28;20025;-73
2023/06/24 07:32:53;;;;;;;8.40;2.65;;;22.80;6.60;;;;;;5051329;28;20037;-73
2023/06/24 07:35:19;;;;;;;3.20;2.10;;;22.90;11.30;;;;;;5051631;28;20060;-72
2023/06/24 07:37:45;;;;;;;8.73;2.22;;;23.00;1.00;;;;;;5051192;28;20037;-72
2023/06/24 07:40:11;;;;;;;7.20;2.95;;;23.10;1.00;;;;;;5052109;28;20028;-73
2023/06/24 07:42:37;;;;;;;6.45;2.42;;;23.20;1.00;;;;;;5051669;28;20024;-72
2023/06/24 07:45:03;;;;;;;10.02;2.58;;;23.30;1.00;;;;;;5051889;28;20036;-72
2023/06/24 07:47:29;;;;;;;7.88;2.35;;;23.40;1.00;;;;;;5051565;28;20093;-73
2023/06/24 07:49:54;;;;;;;5.78;2.22;;;23.50;1.00;;;;;;5049903;28;20025;-73
2023/06/24 07:52:20;;;;;;;7.95;2.50;;;23.50;1.00;;;;;;5050848;28;20163;-73
2023/06/24 07:54:46;;;;;;;6.75;2.53;;;23.50;1.00;;;;;;5050050;28;20033;-73
2023/06/24 07:57:11;;;;;;;6.53;2.47;;;23.60;1.00;;;;;;5050657;28;20025;-73
2023/06/24 07:59:37;;;;;;;11.73;2.65;;;23.80;1.00;;;;;;5049984;28;20029;-73
2023/06/24 08:02:03;;;;;;;7.30;2.60;;;23.80;1.00;;;;;;5049015;28;20025;-73
2023/06/24 08:04:29;;;;;;;4.38;1.95;;;24.00;1.00;;;;;;5050245;28;20028;-71
2023/06/24 08:06:54;;;;;;;6.22;2.20;;;24.00;1.00;;;;;;5050049;28;20092;-73
2023/06/24 08:09:20;;;;;;;4.60;1.80;;;24.10;1.00;;;;;;5050337;28;20080;-71
2023/06/24 08:11:46;;;;;;;5.97;2.22;;;24.20;1.00;;;;;;5049708;28;20552;-72
2023/06/24 08:14:11;;;;;;;7.97;2.45;;;24.20;1.00;;;;;;5050236;28;20074;-73
2023/06/24 08:16:37;;;;;;;6.22;2.22;;;24.30;1.00;;;;;;5049905;28;20032;-73
2023/06/24 08:19:03;;;;;;;5.75;2.30;;;24.20;1.00;;;;;;5050064;28;20032;-72
2023/06/24 08:21:29;;;;;;;5.25;2.30;;;24.30;1.00;;;;;;5050640;28;20075;-72
2023/06/24 08:23:55;;;;;;;6.55;2.78;;;24.10;1.00;;;;;;5049745;28;20128;-72
2023/06/24 08:26:21;;;;;;;5.78;2.72;;;24.00;1.00;;;;;;5048563;28;20466;-72
2023/06/24 08:28:48;;;;;;;7.70;2.65;;;23.80;1.00;;;;;;5049639;28;20045;-72
2023/06/24 08:31:14;;;;;;;8.48;3.15;;;23.80;1.00;;;;;;5049802;28;20028;-72
2023/06/24 08:33:45;;;;;;;8.98;2.78;;;23.80;1.00;;;;;;5049475;28;20061;-73
2023/06/24 08:36:11;;;;;;;5.07;2.70;;;23.90;1.00;;;;;;5050254;28;20428;-72
2023/06/24 08:38:36;;;;;;;6.72;2.90;;;24.00;1.00;;;;;;5050512;28;20112;-73
2023/06/24 08:41:02;;;;;;;7.78;3.53;;;24.00;1.00;;;;;;5050966;28;20060;-72
2023/06/24 08:43:28;;;;;;;8.48;2.60;;;24.10;1.00;;;;;;5050428;28;20029;-72
2023/06/24 08:45:55;;;;;;;4.80;2.35;;;24.10;1.00;;;;;;5049999;28;20310;-72
2023/06/24 08:48:21;;;;;;;5.28;2.47;;;24.00;1.00;;;;;;5049738;28;20104;-72
2023/06/24 08:50:51;;;;;;;6.00;2.72;;;23.80;1.00;;;;;;5049228;28;20492;-73
2023/06/24 08:53:19;;;;;;;5.30;2.58;;;23.80;1.00;;;;;;5049635;28;20493;-73
2023/06/24 08:55:46;;;;;;;9.98;2.95;;;23.70;1.00;;;;;;5049494;28;20063;-73
2023/06/24 08:58:13;;;;;;;7.07;2.72;;;23.60;1.00;;;;;;5049747;28;20133;-71
2023/06/24 09:00:39;;;;;;;4.50;2.60;;;23.50;1.00;;;;;;5048639;28;20025;-73
2023/06/24 09:03:05;;;;;;;5.38;2.38;;;23.70;1.00;;;;;;5048246;28;20403;-73
2023/06/24 09:05:31;;;;;;;8.18;2.65;;;23.80;1.00;;;;;;5049591;28;20182;-74
2023/06/24 09:07:57;;;;;;;6.57;2.20;;;23.80;1.00;;;;;;5049096;28;20028;-73
2023/06/24 09:10:32;;;;;;;7.97;2.50;;;23.90;1.00;;;;;;5049779;28;20029;-73
2023/06/24 09:12:59;;;;;;;6.65;2.70;;;24.00;1.00;;;;;;5049365;28;20017;-73
2023/06/24 09:15:29;;;;;;;5.10;2.90;;;24.20;1.00;;;;;;5049496;28;20132;-73
2023/06/24 09:17:54;;;;;;;6.90;2.80;;;24.30;1.00;;;;;;5049036;28;20111;-73
2023/06/24 09:20:22;;;;;;;5.63;2.35;;;24.10;1.00;;;;;;5049273;28;20071;-72
2023/06/24 09:22:48;;;;;;;6.03;2.65;;;24.00;1.00;;;;;;5049244;28;20135;-72
2023/06/24 09:25:18;;;;;;;10.38;3.60;;;24.00;1.00;;;;;;5049086;28;20127;-72
2023/06/24 09:27:55;;;;;;;8.43;3.88;;;23.80;1.00;;;;;;5048201;28;20134;-72
2023/06/24 09:30:24;;;;;;;7.45;3.13;;;23.70;1.00;;;;;;5049314;28;20029;-71
2023/06/24 09:32:51;;;;;;;8.35;3.80;;;23.50;1.00;;;;;;5048740;28;20097;-72
2023/06/24 09:35:25;;;;;;;8.65;3.50;;;23.40;1.00;;;;;;5049310;28;20033;-71
2023/06/24 09:37:52;;;;;;;7.97;4.00;;;23.30;1.00;;;;;;5048623;28;20381;-72
2023/06/24 09:40:19;;;;;;;11.77;3.95;;;23.30;1.00;;;;;;5049409;28;20144;-71
2023/06/24 09:42:56;;;;;;;10.07;3.63;;;23.40;1.00;;;;;;5048457;28;20415;-72
2023/06/24 09:45:27;;;;;;;7.97;3.55;;;23.30;1.00;;;;;;5049146;28;20041;-71
2023/06/24 09:47:59;;;;;;;9.57;3.78;;;23.30;1.00;;;;;;5048533;28;20108;-72
2023/06/24 09:50:25;;;;;;;7.70;3.40;;;23.40;1.00;;;;;;5049318;28;20032;-72
2023/06/24 09:52:53;;;;;;;7.00;3.15;;;23.50;1.00;;;;;;5047610;28;20178;-72
2023/06/24 09:55:19;;;;;;;7.20;3.17;;;23.80;1.00;;;;;;5049109;28;20350;-72
2023/06/24 09:57:46;;;;;;;11.20;3.80;;;24.00;1.00;;;;;;5048741;28;20033;-72
2023/06/24 10:00:15;;;;;;;6.43;3.35;;;24.20;1.00;;;;;;5049419;28;20036;-72
2023/06/24 10:02:41;;;;;;;9.18;3.53;;;24.30;1.00;;;;;;5048726;28;20021;-72
2023/06/24 10:05:07;;;;;;;7.57;3.72;;;24.30;99.90;;;;;;5048719;28;20051;-72
2023/06/24 10:07:35;;;;;;;6.55;3.03;;;24.40;1.00;;;;;;5049031;28;20047;-72
2023/06/24 10:10:04;;;;;;;5.72;3.13;;;24.60;1.00;;;;;;5048316;28;20025;-72
2023/06/24 10:12:31;;;;;;;8.23;3.42;;;24.70;1.00;;;;;;5051440;28;20048;-72
2023/06/24 10:14:58;;;;;;;6.50;3.55;;;24.70;99.90;;;;;;5052076;28;20037;-73
2023/06/24 10:17:24;;;;;;;8.18;3.75;;;24.60;99.90;;;;;;5052596;28;20029;-72
2023/06/24 10:19:53;;;;;;;7.70;3.00;;;24.50;1.00;;;;;;5052145;28;20063;-72
2023/06/24 10:22:25;;;;;;;6.40;3.60;;;24.60;1.00;;;;;;5052489;28;20108;-73
2023/06/24 10:24:52;;;;;;;7.43;3.50;;;24.80;1.00;;;;;;5052093;28;20467;-72
2023/06/24 10:27:24;;;;;;;10.07;3.60;;;24.80;1.00;;;;;;5052607;28;20082;-72
2023/06/24 10:29:56;;;;;;;11.48;3.65;;;24.90;1.00;;;;;;5052280;28;20069;-73
2023/06/24 10:32:23;;;;;;;8.90;3.85;;;24.70;66.90;;;;;;5052088;28;20032;-72
2023/06/24 10:34:57;;;;;;;10.80;4.22;;;24.70;99.90;;;;;;5052013;28;20378;-73
2023/06/24 10:37:25;;;;;;;13.25;4.10;;;24.70;1.00;;;;;;5052399;28;20036;-72
2023/06/24 10:39:58;;;;;;;13.77;4.00;;;24.70;99.90;;;;;;5052133;28;20282;-73
2023/06/24 10:42:28;;;;;;;9.38;4.57;;;24.80;99.90;;;;;;5051965;28;20569;-73
2023/06/24 10:44:55;;;;;;;8.60;3.65;;;24.80;99.90;;;;;;5051992;28;20033;-73
2023/06/24 10:47:23;;;;;;;14.73;3.95;;;25.00;99.90;;;;;;5052784;28;20089;-72
2023/06/24 10:49:48;;;;;;;13.98;4.45;;;25.10;99.90;;;;;;5052032;28;20029;-73
2023/06/24 10:52:17;;;;;;;9.70;4.45;;;25.20;1.00;;;;;;5052420;28;20032;-72
2023/06/24 10:54:43;;;;;;;9.38;3.80;;;25.30;99.90;;;;;;5051785;28;20048;-73
2023/06/24 10:57:12;;;;;;;15.18;4.35;;;25.30;99.90;;;;;;5052218;28;20446;-73
2023/06/24 10:59:42;;;;;;;13.52;4.80;;;25.30;1.00;;;;;;5051968;28;20029;-73
2023/06/24 11:02:14;;;;;;;8.63;4.22;;;25.20;99.90;;;;;;5052253;28;20025;-72
2023/06/24 11:04:50;;;;;;;10.45;4.53;;;25.10;1.00;;;;;;5052530;28;20025;-72
2023/06/24 11:07:21;;;;;;;9.00;4.53;;;25.10;99.90;;;;;;5051741;28;20444;-72
2023/06/24 11:09:51;;;;;;;11.55;4.50;;;25.00;1.00;;;;;;5051457;28;20437;-73
2023/06/24 11:12:18;;;;;;;9.73;4.40;;;25.10;99.90;;;;;;5052396;28;20098;-73
2023/06/24 11:14:44;;;;;;;10.95;4.25;;;25.00;99.90;;;;;;5051941;28;20174;-73
2023/06/24 11:17:10;;;;;;;7.80;4.45;;;25.00;99.90;;;;;;5052102;28;20531;-73
2023/06/24 11:19:39;;;;;;;9.27;4.18;;;25.10;99.90;;;;;;5052155;28;20462;-72
2023/06/24 11:22:06;;;;;;;9.88;3.88;;;25.20;99.90;;;;;;5051686;28;20101;-72
2023/06/24 11:24:32;;;;;;;8.38;3.30;;;25.10;1.00;;;;;;5050792;28;20025;-73
2023/06/24 11:26:58;;;;;;;10.60;4.30;;;25.10;1.00;;;;;;5052009;28;20036;-74
2023/06/24 11:29:24;;;;;;;10.25;4.40;;;25.20;99.90;;;;;;5051892;28;20143;-73
2023/06/24 11:31:50;;;;;;;10.43;3.78;;;25.20;43.60;;;;;;5051601;28;20057;-73
2023/06/24 11:34:16;;;;;;;9.82;3.95;;;25.30;1.00;;;;;;5051941;28;20039;-72
2023/06/24 11:36:44;;;;;;;8.25;3.53;;;25.40;1.00;;;;;;5051594;28;20049;-71
2023/06/24 11:39:22;;;;;;;8.73;4.00;;;25.30;1.00;;;;;;5051846;28;20103;-73
2023/06/24 11:41:47;;;;;;;11.70;4.32;;;25.20;1.00;;;;;;5051792;28;20029;-74
2023/06/24 11:44:13;;;;;;;6.28;3.58;;;25.30;1.00;;;;;;5052067;28;20075;-73
2023/06/24 11:46:40;;;;;;;10.63;3.80;;;25.40;99.90;;;;;;5051860;28;20426;-72
2023/06/24 11:49:09;;;;;;;6.82;3.85;;;25.30;51.30;;;;;;5051432;28;20092;-73
2023/06/24 11:51:36;;;;;;;8.93;3.38;;;25.30;99.90;;;;;;5051743;28;20056;-73
2023/06/24 11:54:03;;;;;;;9.77;3.45;;;25.30;1.00;;;;;;5051507;28;20111;-73
2023/06/24 11:56:36;;;;;;;7.85;2.92;;;25.40;99.90;;;;;;5051646;28;20044;-72
2023/06/24 11:59:07;;;;;;;7.93;3.50;;;25.20;99.90;;;;;;5051142;28;20075;-73
2023/06/24 12:01:33;;;;;;;7.05;3.40;;;25.20;1.00;;;;;;5051470;28;20060;-73
2023/06/24 12:04:15;;;;;;;6.32;3.80;;;25.20;1.00;;;;;;5050112;28;20090;-73
2023/06/24 12:06:44;;;;;;;8.50;3.35;;;25.30;62.10;;;;;;5051717;28;20033;-72
2023/06/24 12:09:10;;;;;;;8.25;3.35;;;25.40;99.90;;;;;;5050521;28;20037;-72
2023/06/24 12:11:36;;;;;;;7.43;3.30;;;25.50;1.00;;;;;;5051425;28;20025;-73
2023/06/24 12:14:02;;;;;;;7.38;3.00;;;25.40;1.00;;;;;;5051048;28;20029;-73
2023/06/24 12:16:28;;;;;;;5.60;2.65;;;25.60;1.00;;;;;;5050662;28;20452;-75
2023/06/24 12:18:54;;;;;;;6.82;2.53;;;25.60;1.00;;;;;;5049856;28;20466;-73
2023/06/24 12:21:20;;;;;;;8.63;2.50;;;25.60;1.00;;;;;;5050401;28;20063;-74
2023/06/24 12:23:46;;;;;;;9.68;2.67;;;25.60;99.90;;;;;;5050868;28;20029;-74
2023/06/24 12:26:12;;;;;;;7.57;2.50;;;25.70;1.00;;;;;;5050215;28;20028;-74
2023/06/24 12:28:38;;;;;;;5.78;2.53;;;25.80;1.00;;;;;;5050603;28;20053;-74
2023/06/24 12:31:04;;;;;;;5.30;2.65;;;25.80;99.90;;;;;;5050019;28;20122;-73
2023/06/24 12:33:33;;;;;;;5.32;2.25;;;25.90;1.00;;;;;;5050559;28;20032;-73
2023/06/24 12:35:59;;;;;;;5.43;2.15;;;26.00;1.00;;;;;;5048956;28;20144;-73
2023/06/24 12:38:25;;;;;;;5.90;2.40;;;26.00;99.90;;;;;;5050124;28;20056;-74
2023/06/24 12:40:50;;;;;;;6.18;1.98;;;25.90;99.90;;;;;;5049655;28;20134;-74
2023/06/24 12:43:16;;;;;;;5.38;2.40;;;26.00;99.90;;;;;;5050317;28;20395;-73
2023/06/24 12:45:45;;;;;;;2.90;1.80;;;25.80;99.90;;;;;;5048948;28;20033;-73
2023/06/24 12:48:12;;;;;;;3.03;1.50;;;25.90;1.00;;;;;;5050358;28;20379;-73